createdAt,value
2022-11-10T00:02:13.408Z,19.23
2022-11-10T00:04:40.501Z,21.30
2022-11-10T00:07:07.642Z,23.17
2022-11-10T00:09:34.844Z,20.77
2022-11-10T00:12:01.912Z,19.07
2022-11-10T00:14:47.991Z,18.10
2022-11-10T00:17:15.085Z,18.27
2022-11-10T00:19:42.189Z,18.60
2022-11-10T00:22:09.316Z,19.10
2022-11-10T00:24:36.569Z,18.57
2022-11-10T00:27:03.713Z,16.70
2022-11-10T00:29:30.839Z,17.07
2022-11-10T00:31:57.972Z,17.63
2022-11-10T00:34:25.234Z,18.03
2022-11-10T00:36:52.364Z,21.60
2022-11-10T00:39:19.472Z,20.93
2022-11-10T00:41:46.551Z,20.50
2022-11-10T00:44:13.652Z,19.40
2022-11-10T00:46:40.724Z,19.23
2022-11-10T00:49:07.872Z,18.73
2022-11-10T00:51:35.004Z,18.07
2022-11-10T00:54:02.077Z,19.83
2022-11-10T00:56:29.189Z,19.27
2022-11-10T00:58:56.308Z,18.33
2022-11-10T01:01:24.470Z,20.13
2022-11-10T01:03:51.940Z,20.83
2022-11-10T01:06:19.522Z,19.77
2022-11-10T01:08:46.659Z,20.53
2022-11-10T01:11:14.729Z,23.30
2022-11-10T01:13:41.847Z,28.70
2022-11-10T01:16:09.934Z,27.50
2022-11-10T01:18:37.080Z,21.93
2022-11-10T01:21:04.445Z,20.27
2022-11-10T01:23:31.552Z,19.87
2022-11-10T01:26:02.162Z,19.07
2022-11-10T01:28:29.505Z,20.40
2022-11-10T01:31:06.625Z,18.73
2022-11-10T01:33:33.828Z,19.23
2022-11-10T01:36:00.921Z,17.20
2022-11-10T01:38:28.608Z,18.43
2022-11-10T01:40:56.033Z,18.67
2022-11-10T01:43:23.481Z,19.53
2022-11-10T01:45:51.966Z,19.50
2022-11-10T01:48:27.689Z,19.17
2022-11-10T01:50:54.775Z,16.13
2022-11-10T01:53:24.698Z,18.10
2022-11-10T01:55:51.987Z,22.07
2022-11-10T01:58:20.654Z,27.93
2022-11-10T02:00:47.816Z,48.07
2022-11-10T02:03:16.329Z,91.47
2022-11-10T02:05:43.659Z,100.47
2022-11-10T02:08:10.749Z,69.83
2022-11-10T02:10:37.968Z,43.80
2022-11-10T02:13:05.039Z,52.63
2022-11-10T02:15:32.109Z,43.40
2022-11-10T02:17:59.235Z,47.47
2022-11-10T02:20:26.301Z,45.13
2022-11-10T02:22:53.394Z,29.20
2022-11-10T02:25:21.531Z,35.83
2022-11-10T02:27:48.686Z,38.70
2022-11-10T02:30:16.071Z,46.97
2022-11-10T02:32:43.237Z,37.33
2022-11-10T02:35:10.332Z,30.50
2022-11-10T02:37:37.429Z,31.93
2022-11-10T02:40:05.261Z,25.90
2022-11-10T02:42:32.385Z,26.03
2022-11-10T02:44:59.494Z,22.37
2022-11-10T02:47:26.609Z,24.07
2022-11-10T02:49:53.690Z,23.57
2022-11-10T02:52:20.774Z,25.00
2022-11-10T02:54:47.934Z,23.17
2022-11-10T02:57:15.010Z,21.80
2022-11-10T02:59:42.090Z,17.87
2022-11-10T03:02:09.210Z,17.53
2022-11-10T03:04:36.311Z,17.47
2022-11-10T03:07:03.629Z,19.07
2022-11-10T03:09:30.864Z,21.43
2022-11-10T03:11:57.924Z,20.70
2022-11-10T03:14:24.994Z,20.13
2022-11-10T03:16:52.495Z,19.27
2022-11-10T03:19:19.563Z,18.43
2022-11-10T03:21:46.639Z,18.37
2022-11-10T03:24:13.802Z,17.03
2022-11-10T03:26:40.882Z,18.40
2022-11-10T03:29:07.986Z,20.57
2022-11-10T03:31:35.079Z,20.40
2022-11-10T03:34:02.177Z,20.97
2022-11-10T03:36:29.248Z,20.80
2022-11-10T03:38:57.069Z,25.03
2022-11-10T03:41:24.161Z,25.67
2022-11-10T03:43:51.324Z,26.33
2022-11-10T03:46:18.560Z,27.00
2022-11-10T03:48:50.420Z,29.03
2022-11-10T03:51:19.155Z,27.57
2022-11-10T03:53:46.242Z,26.40
2022-11-10T03:56:13.330Z,31.77
2022-11-10T03:58:40.445Z,47.73
2022-11-10T04:01:07.636Z,70.07
2022-11-10T04:03:34.772Z,64.43
2022-11-10T04:06:20.471Z,50.63
2022-11-10T04:08:59.882Z,44.37
2022-11-10T04:11:46.109Z,29.57
2022-11-10T04:14:32.092Z,28.50
2022-11-10T04:16:59.239Z,28.70
2022-11-10T04:19:26.407Z,27.30
2022-11-10T04:21:53.709Z,26.87
2022-11-10T04:24:20.993Z,29.87
2022-11-10T04:26:48.689Z,48.87
2022-11-10T04:29:16.380Z,51.57
2022-11-10T04:31:43.637Z,51.33
2022-11-10T04:34:11.680Z,53.37
2022-11-10T04:36:39.221Z,56.03
2022-11-10T04:39:06.370Z,54.00
2022-11-10T04:41:33.504Z,41.53
2022-11-10T04:44:01.021Z,41.97
2022-11-10T04:46:32.355Z,43.70
2022-11-10T04:48:59.595Z,40.90
2022-11-10T04:51:27.462Z,36.20
2022-11-10T04:53:54.687Z,39.60
2022-11-10T04:56:22.321Z,37.47
2022-11-10T04:58:49.489Z,42.50
2022-11-10T05:01:17.963Z,36.57
2022-11-10T05:03:45.356Z,35.33
2022-11-10T05:06:12.455Z,50.20
2022-11-10T05:08:39.881Z,36.07
2022-11-10T05:11:07.025Z,30.37
2022-11-10T05:13:34.099Z,28.47
2022-11-10T05:16:01.228Z,28.33
2022-11-10T05:18:28.313Z,29.17
2022-11-10T05:20:55.409Z,29.77
2022-11-10T05:23:44.058Z,33.10
2022-11-10T05:26:15.041Z,39.97
2022-11-10T05:28:42.976Z,50.27
2022-11-10T05:31:10.190Z,53.37
2022-11-10T05:33:37.879Z,52.00
2022-11-10T05:36:05.428Z,49.50
2022-11-10T05:38:32.543Z,48.93
2022-11-10T05:40:59.702Z,45.00
2022-11-10T05:43:26.943Z,51.33
2022-11-10T05:45:54.143Z,54.37
2022-11-10T05:48:21.224Z,82.97
2022-11-10T05:50:48.373Z,63.87
2022-11-10T05:53:15.500Z,44.97
2022-11-10T05:55:42.575Z,52.80
2022-11-10T05:58:09.744Z,97.70
2022-11-10T06:00:36.933Z,100.27
2022-11-10T06:03:08.244Z,88.53
2022-11-10T06:05:35.817Z,92.60
2022-11-10T06:08:03.532Z,73.77
2022-11-10T06:10:31.048Z,78.37
2022-11-10T06:12:58.221Z,82.50
2022-11-10T06:15:25.357Z,50.63
2022-11-10T06:17:52.542Z,38.63
2022-11-10T06:20:19.797Z,37.63
2022-11-10T06:22:59.501Z,54.73
2022-11-10T06:25:26.687Z,56.73
2022-11-10T06:27:53.973Z,55.37
2022-11-10T06:30:21.128Z,61.37
2022-11-10T06:32:48.288Z,75.18
2022-11-10T06:35:15.689Z,76.43
2022-11-10T06:37:42.883Z,76.60
2022-11-10T06:40:10.705Z,72.30
2022-11-10T06:42:37.842Z,64.27
2022-11-10T06:45:05.072Z,61.53
2022-11-10T06:47:32.291Z,63.37
2022-11-10T06:49:59.365Z,65.63
2022-11-10T06:52:26.497Z,64.33
2022-11-10T06:54:53.562Z,60.47
2022-11-10T06:57:20.703Z,66.13
2022-11-10T06:59:47.838Z,62.83
2022-11-10T07:02:15.379Z,59.17
2022-11-10T07:04:45.698Z,61.08
2022-11-10T07:07:12.925Z,73.07
2022-11-10T07:09:40.097Z,61.53
2022-11-10T07:12:07.201Z,65.60
2022-11-10T07:14:34.306Z,61.73
2022-11-10T07:17:01.387Z,63.83
2022-11-10T07:19:28.600Z,86.37
2022-11-10T07:21:55.722Z,84.32
2022-11-10T07:24:22.866Z,83.55
2022-11-10T07:26:50.418Z,84.53
2022-11-10T07:29:17.525Z,102.72
2022-11-10T07:31:44.674Z,93.63
2022-11-10T07:34:11.845Z,87.95
2022-11-10T07:36:38.949Z,94.53
2022-11-10T07:39:06.226Z,90.57
2022-11-10T07:41:33.387Z,91.00
2022-11-10T07:44:00.499Z,84.95
2022-11-10T07:46:27.576Z,90.10
2022-11-10T07:48:54.719Z,79.10
2022-11-10T07:51:21.923Z,77.57
2022-11-10T07:53:49.021Z,79.70
2022-11-10T07:56:16.139Z,78.80
2022-11-10T07:58:43.292Z,77.55
2022-11-10T08:01:10.559Z,76.43
2022-11-10T08:03:37.758Z,77.47
2022-11-10T08:06:04.947Z,113.28
2022-11-10T08:08:32.016Z,89.25
2022-11-10T08:10:59.196Z,75.93
2022-11-10T08:13:26.359Z,79.53
2022-11-10T08:15:53.486Z,88.72
2022-11-10T08:18:23.633Z,140.00
2022-11-10T08:20:50.757Z,140.40
2022-11-10T08:23:18.007Z,119.82
2022-11-10T08:25:46.678Z,113.68
2022-11-10T08:28:14.794Z,112.68
2022-11-10T08:30:42.874Z,121.47
2022-11-10T08:33:10.366Z,146.50
2022-11-10T08:35:38.612Z,154.60
2022-11-10T08:38:09.548Z,167.38
2022-11-10T08:40:37.149Z,157.32
2022-11-10T08:43:07.325Z,140.15
2022-11-10T08:45:37.680Z,143.52
2022-11-10T08:48:05.651Z,143.88
2022-11-10T08:50:32.786Z,142.35
2022-11-10T08:53:03.477Z,133.38
2022-11-10T08:55:30.597Z,129.07
2022-11-10T08:58:01.291Z,127.95
2022-11-10T09:00:28.843Z,120.03
2022-11-10T09:02:56.585Z,100.00
2022-11-10T09:05:24.200Z,88.88
2022-11-10T09:07:51.726Z,77.57
2022-11-10T09:10:18.845Z,79.70
2022-11-10T09:12:46.119Z,54.13
2022-11-10T09:15:13.277Z,53.40
2022-11-10T09:17:40.625Z,49.15
2022-11-10T09:20:08.129Z,34.60
2022-11-10T09:22:35.826Z,34.03
2022-11-10T09:25:03.028Z,30.70
2022-11-10T09:27:30.134Z,28.73
2022-11-10T09:29:57.378Z,26.63
2022-11-10T09:32:24.529Z,26.02
2022-11-10T09:34:53.072Z,30.27
2022-11-10T09:37:20.453Z,30.58
2022-11-10T09:39:47.523Z,28.63
2022-11-10T09:42:23.049Z,25.13
2022-11-10T09:44:54.639Z,23.83
2022-11-10T09:50:15.961Z,20.83
2022-11-10T09:52:43.110Z,21.77
2022-11-10T09:55:18.301Z,21.88
2022-11-10T09:57:48.880Z,21.02
2022-11-10T10:00:16.871Z,20.70
2022-11-10T10:02:46.272Z,18.67
2022-11-10T10:05:46.522Z,18.75
2022-11-10T10:08:34.357Z,20.15
2022-11-10T10:11:16.719Z,20.45
2022-11-10T10:13:49.693Z,20.17
2022-11-10T10:16:16.764Z,21.52
2022-11-10T10:18:49.237Z,21.48
2022-11-10T10:21:25.612Z,27.25
2022-11-10T10:24:12.811Z,24.60
2022-11-10T10:27:00.825Z,25.05
2022-11-10T10:29:37.260Z,21.95
2022-11-10T10:32:04.800Z,18.95
2022-11-10T10:34:34.571Z,18.48
2022-11-10T10:37:02.975Z,17.35
2022-11-10T10:39:35.639Z,19.42
2022-11-10T10:42:02.715Z,18.65
2022-11-10T10:44:29.820Z,20.92
2022-11-10T10:47:00.420Z,17.23
2022-11-10T10:49:29.737Z,17.10
2022-11-10T10:52:16.740Z,15.75
2022-11-10T10:54:43.818Z,15.73
2022-11-10T10:57:21.364Z,15.25
2022-11-10T10:59:48.453Z,18.13
2022-11-10T11:02:28.360Z,18.48
2022-11-10T11:05:13.167Z,14.55
2022-11-10T11:07:40.338Z,15.43
2022-11-10T11:10:19.481Z,14.55
2022-11-10T11:12:46.641Z,15.32
2022-11-10T11:15:22.956Z,15.27
2022-11-10T11:17:56.947Z,16.17
2022-11-10T11:20:30.194Z,16.90
2022-11-10T11:22:57.620Z,15.27
2022-11-10T11:25:27.924Z,15.98
2022-11-10T11:28:04.736Z,17.52
2022-11-10T11:30:50.407Z,15.65
2022-11-10T11:33:20.602Z,16.35
2022-11-10T11:35:47.704Z,16.58
2022-11-10T11:38:33.853Z,16.48
2022-11-10T11:41:06.982Z,16.60
2022-11-10T11:43:54.412Z,17.40
2022-11-10T11:46:43.537Z,16.00
2022-11-10T11:49:19.545Z,16.60
2022-11-10T11:51:52.386Z,16.42
2022-11-10T11:54:31.180Z,17.17
2022-11-10T11:57:00.705Z,18.13
2022-11-10T11:59:31.247Z,17.17
2022-11-10T12:01:58.474Z,18.50
2022-11-10T12:04:44.409Z,17.92
2022-11-10T12:07:18.328Z,26.00
2022-11-10T12:09:46.431Z,30.60
2022-11-10T12:12:24.104Z,24.92
2022-11-10T12:14:51.196Z,23.08
2022-11-10T12:17:30.318Z,23.23
2022-11-10T12:20:03.756Z,26.95
2022-11-10T12:22:30.837Z,24.52
2022-11-10T12:25:07.550Z,25.92
2022-11-10T12:27:35.303Z,26.50
2022-11-10T12:30:03.364Z,25.70
2022-11-10T12:32:43.184Z,27.30
2022-11-10T12:35:27.209Z,26.45
2022-11-10T12:38:04.980Z,25.35
2022-11-10T12:40:33.033Z,23.10
2022-11-10T12:43:00.945Z,23.00
2022-11-10T12:45:32.995Z,23.42
2022-11-10T12:48:00.086Z,22.95
2022-11-10T12:50:36.156Z,23.15
2022-11-10T12:53:12.729Z,27.27
2022-11-10T12:56:00.132Z,24.85
2022-11-10T12:58:27.896Z,26.52
2022-11-10T13:01:01.264Z,25.25
2022-11-10T13:03:38.180Z,24.77
2022-11-10T13:06:05.910Z,23.00
2022-11-10T13:08:34.167Z,24.00
2022-11-10T13:11:02.427Z,23.75
2022-11-10T13:13:29.590Z,18.63
2022-11-10T13:15:57.320Z,20.48
2022-11-10T13:18:33.286Z,19.75
2022-11-10T13:21:00.426Z,17.50
2022-11-10T13:23:30.524Z,18.48
2022-11-10T13:25:58.936Z,17.70
2022-11-10T13:28:44.753Z,16.90
2022-11-10T13:31:35.238Z,16.05
2022-11-10T13:34:20.349Z,23.55
2022-11-10T13:36:48.115Z,23.67
2022-11-10T13:39:24.143Z,22.10
2022-11-10T13:41:51.797Z,21.45
2022-11-10T13:44:22.863Z,13.15
2022-11-10T13:47:13.272Z,15.20
2022-11-10T13:49:40.371Z,14.32
2022-11-10T13:52:19.647Z,16.85
2022-11-10T13:55:05.239Z,15.80
2022-11-10T13:57:42.406Z,13.40
2022-11-10T14:00:32.750Z,13.68
2022-11-10T14:03:03.736Z,11.75
2022-11-10T14:05:31.738Z,29.73
2022-11-10T14:08:10.626Z,14.95
2022-11-10T14:10:57.970Z,41.20
2022-11-10T14:13:26.766Z,36.95
2022-11-10T14:15:54.162Z,13.27
2022-11-10T14:18:22.394Z,17.15
2022-11-10T14:20:53.542Z,14.43
2022-11-10T14:23:23.298Z,11.85
2022-11-10T14:25:54.349Z,10.80
2022-11-10T14:28:28.070Z,10.48
2022-11-10T14:30:55.490Z,15.55
2022-11-10T14:33:22.671Z,8.57
2022-11-10T14:36:02.844Z,8.68
2022-11-10T14:38:33.962Z,10.35
2022-11-10T14:41:01.560Z,9.38
2022-11-10T14:43:29.880Z,11.20
2022-11-10T14:45:57.141Z,7.90
2022-11-10T14:48:25.861Z,10.60
2022-11-10T14:50:53.530Z,10.73
2022-11-10T14:53:29.467Z,17.83
2022-11-10T14:55:56.798Z,26.08
2022-11-10T14:58:25.189Z,17.17
2022-11-10T15:00:52.658Z,24.27
2022-11-10T15:03:26.804Z,24.35
2022-11-10T15:05:53.924Z,27.50
2022-11-10T15:08:24.441Z,48.50
2022-11-10T15:10:53.257Z,60.45
2022-11-10T15:13:22.815Z,98.80
2022-11-10T15:15:49.961Z,102.95
2022-11-10T15:18:31.049Z,79.18
2022-11-10T15:21:01.854Z,78.82
2022-11-10T15:23:33.874Z,81.18
2022-11-10T15:26:01.161Z,46.05
2022-11-10T15:28:34.933Z,44.72
2022-11-10T15:31:11.641Z,46.13
2022-11-10T15:33:39.017Z,49.65
2022-11-10T15:36:16.614Z,81.72
2022-11-10T15:38:43.853Z,63.95
2022-11-10T15:41:12.196Z,68.70
2022-11-10T15:43:39.445Z,82.82
2022-11-10T15:46:18.308Z,93.90
2022-11-10T15:48:49.648Z,97.25
2022-11-10T15:51:20.204Z,106.40
2022-11-10T15:53:52.595Z,113.43
2022-11-10T15:56:20.685Z,115.95
2022-11-10T15:58:48.575Z,103.20
2022-11-10T16:01:16.063Z,109.22
2022-11-10T16:03:43.283Z,106.70
2022-11-10T16:06:13.939Z,120.50
2022-11-10T16:08:41.092Z,92.03
2022-11-10T16:11:13.579Z,78.88
2022-11-10T16:13:40.682Z,105.88
2022-11-10T16:16:07.966Z,98.05
2022-11-10T16:18:35.147Z,73.88
2022-11-10T16:21:02.271Z,69.28
2022-11-10T16:23:29.397Z,84.38
2022-11-10T16:25:56.781Z,95.93
2022-11-10T16:28:25.655Z,115.80
2022-11-10T16:30:53.301Z,91.75
2022-11-10T16:33:21.044Z,104.50
2022-11-10T16:35:51.860Z,97.38
2022-11-10T16:38:19.089Z,127.03
2022-11-10T16:40:47.394Z,119.60
2022-11-10T16:43:15.109Z,103.57
2022-11-10T16:45:42.812Z,150.23
2022-11-10T16:48:09.939Z,117.00
2022-11-10T16:50:37.762Z,126.88
2022-11-10T16:53:05.338Z,142.65
2022-11-10T16:55:32.517Z,130.35
2022-11-10T16:57:59.729Z,118.85
2022-11-10T17:00:27.431Z,135.82
2022-11-10T17:03:01.755Z,159.23
2022-11-10T17:05:28.920Z,147.65
2022-11-10T17:07:56.179Z,215.00
2022-11-10T17:10:23.611Z,154.40
2022-11-10T17:12:50.767Z,127.90
2022-11-10T17:15:18.023Z,150.03
2022-11-10T17:17:45.472Z,146.25
2022-11-10T17:20:38.924Z,142.73
2022-11-10T17:23:06.587Z,143.45
2022-11-10T17:25:34.441Z,146.60
2022-11-10T17:28:01.707Z,170.95
2022-11-10T17:30:28.903Z,168.60
2022-11-10T17:33:04.559Z,152.63
2022-11-10T17:35:35.032Z,144.35
2022-11-10T17:38:06.418Z,150.55
2022-11-10T17:40:33.548Z,137.82
2022-11-10T17:43:00.632Z,153.88
2022-11-10T17:45:28.139Z,162.40
2022-11-10T17:47:55.563Z,167.77
2022-11-10T17:50:23.076Z,173.43
2022-11-10T17:52:50.169Z,153.77
2022-11-10T17:55:18.688Z,111.88
2022-11-10T17:57:46.003Z,130.43
2022-11-10T18:00:13.533Z,147.45
2022-11-10T18:02:40.787Z,153.20
2022-11-10T18:05:08.020Z,152.80
2022-11-10T18:07:35.114Z,149.15
2022-11-10T18:10:02.276Z,138.98
2022-11-10T18:12:29.399Z,145.43
2022-11-10T18:14:56.582Z,160.98
2022-11-10T18:17:23.815Z,164.75
2022-11-10T18:19:50.933Z,175.13
2022-11-10T18:22:18.589Z,141.55
2022-11-10T18:24:45.750Z,149.57
2022-11-10T18:27:12.842Z,140.38
2022-11-10T18:29:41.232Z,130.20
2022-11-10T18:32:08.383Z,153.10
2022-11-10T18:34:35.541Z,146.57
2022-11-10T18:37:02.629Z,207.55
2022-11-10T18:39:29.745Z,162.98
2022-11-10T18:41:56.838Z,165.45
2022-11-10T18:44:23.937Z,159.25
2022-11-10T18:46:51.101Z,146.38
2022-11-10T18:49:18.209Z,159.00
2022-11-10T18:51:45.414Z,158.00
2022-11-10T18:54:12.972Z,157.50
2022-11-10T18:56:40.093Z,135.15
2022-11-10T18:59:07.191Z,143.87
2022-11-10T19:01:34.655Z,124.15
2022-11-10T19:04:01.836Z,81.83
2022-11-10T19:06:28.934Z,83.35
2022-11-10T19:08:56.838Z,80.13
2022-11-10T19:11:23.983Z,57.72
2022-11-10T19:13:51.286Z,65.15
2022-11-10T19:16:18.870Z,89.80
2022-11-10T19:18:46.152Z,92.27
2022-11-10T19:21:20.403Z,64.40
2022-11-10T19:23:47.652Z,55.97
2022-11-10T19:26:21.937Z,81.43
2022-11-10T19:28:49.763Z,81.13
2022-11-10T19:31:17.693Z,102.63
2022-11-10T19:33:45.366Z,71.07
2022-11-10T19:36:13.768Z,84.67
2022-11-10T19:38:41.215Z,98.33
2022-11-10T19:41:09.094Z,110.60
2022-11-10T19:43:36.296Z,101.50
2022-11-10T19:46:04.042Z,81.03
2022-11-10T19:48:32.198Z,66.97
2022-11-10T19:50:59.870Z,143.80
2022-11-10T19:53:27.006Z,112.03
2022-11-10T19:55:54.235Z,109.50
2022-11-10T19:58:21.370Z,106.83
2022-11-10T20:00:48.748Z,93.83
2022-11-10T20:03:15.927Z,79.90
2022-11-10T20:05:43.442Z,89.37
2022-11-10T20:08:12.124Z,76.80
2022-11-10T20:10:39.704Z,88.57
2022-11-10T20:13:07.330Z,112.20
2022-11-10T20:15:34.851Z,115.77
2022-11-10T20:18:02.398Z,112.53
2022-11-10T20:20:29.541Z,93.53
2022-11-10T20:22:56.653Z,113.20
2022-11-10T20:25:23.886Z,98.17
2022-11-10T20:27:51.194Z,98.43
2022-11-10T20:30:23.379Z,101.10
2022-11-10T20:32:51.239Z,108.97
2022-11-10T20:35:18.479Z,107.90
2022-11-10T20:37:45.692Z,100.90
2022-11-10T20:40:42.410Z,96.30
2022-11-10T20:43:00.742Z,77.07
2022-11-10T20:45:27.974Z,75.77
2022-11-10T20:47:55.110Z,80.27
2022-11-10T20:50:24.581Z,86.97
2022-11-10T20:52:51.937Z,89.50
2022-11-10T20:55:43.718Z,107.67
2022-11-10T20:58:06.375Z,144.97
2022-11-10T21:00:33.929Z,115.17
2022-11-10T21:03:03.160Z,101.87
2022-11-10T21:05:30.352Z,89.53
2022-11-10T21:07:57.479Z,87.30
2022-11-10T21:10:24.564Z,75.70
2022-11-10T21:12:51.911Z,67.47
2022-11-10T21:15:19.362Z,69.00
2022-11-10T21:17:46.451Z,71.67
2022-11-10T21:20:13.846Z,70.37
2022-11-10T21:22:40.964Z,89.17
2022-11-10T21:25:08.328Z,81.43
2022-11-10T21:27:35.473Z,75.93
2022-11-10T21:30:02.590Z,73.20
2022-11-10T21:32:29.708Z,73.93
2022-11-10T21:34:56.814Z,72.00
2022-11-10T21:37:25.716Z,75.73
2022-11-10T21:39:52.899Z,71.20
2022-11-10T21:42:22.156Z,68.97
2022-11-10T21:44:49.292Z,100.87
2022-11-10T21:47:16.605Z,123.53
2022-11-10T21:49:43.727Z,124.53
2022-11-10T21:52:10.864Z,129.90
2022-11-10T21:54:38.120Z,132.03
2022-11-10T21:57:05.292Z,125.80
2022-11-10T21:59:32.426Z,123.10
2022-11-10T22:01:59.603Z,113.28
2022-11-10T22:04:26.816Z,115.93
2022-11-10T22:07:12.742Z,114.90
2022-11-10T22:09:58.591Z,111.80
2022-11-10T22:12:44.537Z,104.23
2022-11-10T22:15:33.492Z,111.43
2022-11-10T22:18:19.386Z,95.13
2022-11-10T22:20:46.645Z,101.30
2022-11-10T22:23:13.773Z,119.00
2022-11-10T22:25:40.882Z,100.00
2022-11-10T22:28:08.051Z,98.63
2022-11-10T22:30:36.709Z,94.40
2022-11-10T22:33:24.111Z,117.53
2022-11-10T22:35:57.278Z,114.83
2022-11-10T22:38:25.364Z,106.53
2022-11-10T22:41:11.256Z,101.77
2022-11-10T22:44:10.930Z,93.67
2022-11-10T22:46:41.523Z,80.90
2022-11-10T22:49:09.461Z,78.23
2022-11-10T22:51:37.173Z,81.47
2022-11-10T22:54:04.501Z,81.83
2022-11-10T22:56:31.928Z,76.57
2022-11-10T22:59:00.334Z,74.53
2022-11-10T23:01:27.721Z,74.93
2022-11-10T23:03:54.924Z,72.20
2022-11-10T23:06:22.085Z,69.73
2022-11-10T23:08:49.185Z,70.70
2022-11-10T23:11:19.935Z,80.27
2022-11-10T23:13:47.140Z,77.77
2022-11-10T23:16:15.400Z,62.67
2022-11-10T23:18:43.296Z,58.83
2022-11-10T23:21:11.099Z,55.77
2022-11-10T23:23:39.373Z,54.13
2022-11-10T23:26:13.378Z,48.83
2022-11-10T23:28:40.660Z,42.77
2022-11-10T23:31:07.803Z,43.87
2022-11-10T23:33:35.328Z,41.23
2022-11-10T23:36:03.173Z,36.83
2022-11-10T23:38:30.896Z,39.40
2022-11-10T23:40:58.268Z,38.97
2022-11-10T23:43:25.878Z,34.93
2022-11-10T23:46:06.520Z,34.57
2022-11-10T23:48:35.143Z,32.77
2022-11-10T23:51:02.314Z,34.27
2022-11-10T23:53:29.447Z,35.90
2022-11-10T23:56:00.328Z,35.60
2022-11-10T23:58:27.477Z,36.07
